Time;durP1;ratioP1;P1;durP2;ratioP2;P2;SDS_P1;SDS_P2;PMS_P1;PMS_P2;Temp;Humidity;BMP_temperature;BMP_pressure;BME280_temperature;BME280_humidity;BME280_pressure;Samples;Min_cycle;Max_cycle;Signal;HPM_P1;HPM_P2
2022/07/06 00:01:34;;;;;;;7.07;1.20;;;;;;;;;;4968109;28;20049;-69
2022/07/06 00:04:00;;;;;;;5.65;1.33;;;;;;;;;;4970995;28;20809;-68
2022/07/06 00:06:26;;;;;;;8.88;1.25;;;;;;;;;;4969934;28;20425;-68
2022/07/06 00:08:51;;;;;;;8.13;1.20;;;;;;;;;;4971227;28;22421;-67
2022/07/06 00:11:16;;;;;;;2.33;0.80;;;;;;;;;;4969510;28;20117;-70
2022/07/06 00:13:42;;;;;;;10.32;1.67;;;;;;;;;;4976837;28;20113;-64
2022/07/06 00:16:07;;;;;;;5.88;1.23;;;;;;;;;;4971915;28;20064;-64
2022/07/06 00:18:32;;;;;;;13.20;1.70;;;;;;;;;;4969166;28;20673;-64
2022/07/06 00:20:58;;;;;;;7.15;1.15;;;;;;;;;;4969815;28;20093;-63
2022/07/06 00:23:23;;;;;;;7.25;0.70;;;;;;;;;;4970495;28;21030;-65
2022/07/06 00:25:49;;;;;;;7.75;0.90;;;;;;;;;;4985482;28;20164;-63
2022/07/06 00:28:14;;;;;;;7.88;1.63;;;;;;;;;;4970016;28;20052;-65
2022/07/06 00:30:40;;;;;;;9.40;1.60;;;;;;;;;;4970788;28;20040;-63
2022/07/06 00:33:05;;;;;;;9.05;1.02;;;;;;;;;;4984904;28;20037;-65
2022/07/06 00:35:31;;;;;;;8.15;0.95;;;;;;;;;;4971008;28;20029;-65
2022/07/06 00:37:56;;;;;;;5.78;0.90;;;;;;;;;;4971401;28;20044;-64
2022/07/06 00:40:22;;;;;;;9.43;1.30;;;;;;;;;;4970879;28;20030;-64
2022/07/06 00:42:50;;;;;;;10.70;1.20;;;;;;;;;;4970599;28;20142;-64
2022/07/06 00:45:16;;;;;;;5.82;1.02;;;;;;;;;;4973657;28;20871;-64
2022/07/06 00:47:42;;;;;;;6.63;1.02;;;;;;;;;;4971278;28;20026;-63
2022/07/06 00:50:15;;;;;;;4.85;1.00;;;;;;;;;;4969232;28;20789;-64
2022/07/06 00:52:45;;;;;;;5.53;0.90;;;;;;;;;;4971860;28;20182;-64
2022/07/06 00:55:13;;;;;;;6.30;1.08;;;;;;;;;;4973720;28;20042;-64
2022/07/06 00:57:39;;;;;;;7.15;1.20;;;;;;;;;;4974048;28;20131;-64
2022/07/06 01:00:05;;;;;;;8.50;1.10;;;;;;;;;;4975727;28;20037;-66
2022/07/06 01:02:31;;;;;;;5.07;0.80;;;;;;;;;;4974589;28;20839;-68
2022/07/06 01:04:56;;;;;;;5.95;0.90;;;;;;;;;;4971788;28;20561;-65
2022/07/06 01:07:24;;;;;;;8.70;1.08;;;;;;;;;;4973674;28;20042;-66
2022/07/06 01:09:52;;;;;;;6.03;0.93;;;;;;;;;;4973533;28;20076;-66
2022/07/06 01:12:17;;;;;;;10.88;1.20;;;;;;;;;;4974560;28;20194;-65
2022/07/06 01:14:45;;;;;;;8.07;1.20;;;;;;;;;;4973203;28;20118;-66
2022/07/06 01:17:12;;;;;;;7.35;0.98;;;;;;;;;;4974155;28;20025;-65
2022/07/06 01:19:37;;;;;;;9.65;1.10;;;;;;;;;;4973551;28;20041;-64
2022/07/06 01:22:03;;;;;;;7.68;1.23;;;;;;;;;;4974275;28;20038;-64
2022/07/06 01:24:28;;;;;;;8.98;0.90;;;;;;;;;;4973757;28;20051;-64
2022/07/06 01:26:58;;;;;;;6.28;0.90;;;;;;;;;;4978178;28;20113;-64
2022/07/06 01:29:23;;;;;;;3.95;0.70;;;;;;;;;;4959876;28;20137;-64
2022/07/06 01:31:50;;;;;;;10.80;1.20;;;;;;;;;;4973031;28;20037;-63
2022/07/06 01:34:16;;;;;;;6.57;1.10;;;;;;;;;;4972586;28;20061;-63
2022/07/06 01:36:41;;;;;;;5.82;0.80;;;;;;;;;;4971947;28;20034;-64
2022/07/06 01:39:07;;;;;;;4.53;0.90;;;;;;;;;;4973519;28;20890;-64
2022/07/06 01:41:33;;;;;;;7.40;0.93;;;;;;;;;;4973264;28;20065;-64
2022/07/06 01:43:58;;;;;;;3.35;0.80;;;;;;;;;;4972667;28;20052;-64
2022/07/06 01:46:23;;;;;;;7.93;0.90;;;;;;;;;;4971306;28;20142;-64
2022/07/06 01:48:49;;;;;;;6.05;1.25;;;;;;;;;;4994341;28;20037;-63
2022/07/06 01:51:14;;;;;;;7.20;0.80;;;;;;;;;;4989699;28;20037;-63
2022/07/06 01:53:40;;;;;;;4.97;0.93;;;;;;;;;;4991225;28;20041;-64
2022/07/06 01:56:06;;;;;;;5.57;0.90;;;;;;;;;;4991258;28;20049;-65
2022/07/06 01:58:34;;;;;;;8.90;1.00;;;;;;;;;;5002596;28;20041;-64
2022/07/06 02:01:00;;;;;;;4.68;0.90;;;;;;;;;;4993561;28;20037;-64
2022/07/06 02:03:25;;;;;;;3.22;0.70;;;;;;;;;;4989463;28;20037;-64
2022/07/06 02:05:51;;;;;;;7.13;1.10;;;;;;;;;;4990734;28;20096;-64
2022/07/06 02:08:17;;;;;;;5.38;0.70;;;;;;;;;;4991186;28;20021;-64
2022/07/06 02:10:43;;;;;;;6.32;0.85;;;;;;;;;;4991146;28;20056;-62
2022/07/06 02:13:11;;;;;;;7.05;1.00;;;;;;;;;;4991643;28;20149;-63
2022/07/06 02:15:36;;;;;;;7.55;0.98;;;;;;;;;;4990149;28;20045;-65
2022/07/06 02:18:02;;;;;;;6.65;0.85;;;;;;;;;;4992332;28;20057;-64
2022/07/06 02:20:27;;;;;;;2.80;0.75;;;;;;;;;;5004150;28;20140;-64
2022/07/06 02:22:53;;;;;;;5.80;0.93;;;;;;;;;;4991443;28;20026;-65
2022/07/06 02:25:18;;;;;;;2.72;0.75;;;;;;;;;;4991300;28;20029;-65
2022/07/06 02:27:44;;;;;;;8.48;0.90;;;;;;;;;;4994269;28;21069;-65
2022/07/06 02:30:11;;;;;;;6.03;0.70;;;;;;;;;;4990485;28;20066;-65
2022/07/06 02:32:37;;;;;;;7.50;1.00;;;;;;;;;;4991205;28;20805;-66
2022/07/06 02:35:03;;;;;;;5.53;0.90;;;;;;;;;;5004179;28;20592;-65
2022/07/06 02:37:28;;;;;;;6.32;0.98;;;;;;;;;;4990096;28;20034;-65
2022/07/06 02:39:53;;;;;;;4.65;0.75;;;;;;;;;;4989235;28;20037;-66
2022/07/06 02:42:21;;;;;;;7.72;0.95;;;;;;;;;;4988845;28;20033;-64
2022/07/06 02:44:47;;;;;;;8.82;1.00;;;;;;;;;;4989937;28;20038;-65
2022/07/06 02:47:12;;;;;;;5.40;1.10;;;;;;;;;;4983723;28;20149;-66
2022/07/06 02:49:38;;;;;;;5.80;1.05;;;;;;;;;;4970722;28;20034;-66
2022/07/06 02:52:03;;;;;;;6.85;0.75;;;;;;;;;;4971656;28;20045;-68
2022/07/06 02:54:29;;;;;;;6.68;1.35;;;;;;;;;;4970972;28;20041;-64
2022/07/06 02:56:56;;;;;;;4.95;1.33;;;;;;;;;;4978703;28;20040;-66
2022/07/06 02:59:24;;;;;;;4.60;0.80;;;;;;;;;;4971480;28;20134;-67
2022/07/06 03:01:49;;;;;;;7.47;1.10;;;;;;;;;;4970409;28;20038;-65
2022/07/06 03:04:14;;;;;;;7.15;1.00;;;;;;;;;;4971030;28;20041;-65
2022/07/06 03:06:40;;;;;;;14.02;1.27;;;;;;;;;;4971994;28;20850;-64
2022/07/06 03:09:05;;;;;;;9.88;1.20;;;;;;;;;;4973809;28;20034;-65
2022/07/06 03:11:31;;;;;;;10.60;1.20;;;;;;;;;;4970794;28;20851;-66
2022/07/06 03:13:56;;;;;;;7.97;1.02;;;;;;;;;;4971954;28;20922;-64
2022/07/06 03:16:24;;;;;;;8.13;1.00;;;;;;;;;;4970395;28;20118;-67
2022/07/06 03:18:49;;;;;;;4.97;0.93;;;;;;;;;;4971773;28;20054;-65
2022/07/06 03:21:15;;;;;;;7.75;1.08;;;;;;;;;;4971154;28;20119;-65
2022/07/06 03:23:40;;;;;;;8.30;1.58;;;;;;;;;;4970587;28;20504;-64
2022/07/06 03:26:12;;;;;;;7.00;1.10;;;;;;;;;;4977881;28;20071;-64
2022/07/06 03:28:37;;;;;;;5.57;1.30;;;;;;;;;;4990258;28;20060;-69
2022/07/06 03:31:02;;;;;;;8.52;1.17;;;;;;;;;;4991672;28;20036;-69
2022/07/06 03:33:28;;;;;;;4.90;1.05;;;;;;;;;;4987649;28;20034;-69
2022/07/06 03:35:53;;;;;;;7.13;1.15;;;;;;;;;;5003311;28;20029;-71
2022/07/06 03:38:18;;;;;;;12.52;1.38;;;;;;;;;;4991643;28;20033;-68
2022/07/06 03:40:46;;;;;;;9.15;1.17;;;;;;;;;;4977901;28;20104;-69
2022/07/06 03:43:11;;;;;;;8.95;1.40;;;;;;;;;;4990921;28;20103;-69
2022/07/06 03:45:37;;;;;;;8.30;1.05;;;;;;;;;;4992562;28;20140;-69
2022/07/06 03:48:02;;;;;;;5.47;1.30;;;;;;;;;;4991065;28;20037;-72
2022/07/06 03:50:27;;;;;;;10.05;1.00;;;;;;;;;;4996187;28;20083;-71
2022/07/06 03:52:53;;;;;;;8.00;1.10;;;;;;;;;;4994539;28;20033;-70
2022/07/06 03:55:18;;;;;;;5.65;1.10;;;;;;;;;;4993204;28;20115;-70
2022/07/06 03:57:44;;;;;;;7.78;1.10;;;;;;;;;;4995424;28;20148;-70
2022/07/06 04:00:09;;;;;;;8.25;1.05;;;;;;;;;;4991507;28;20026;-71
2022/07/06 04:02:35;;;;;;;6.25;1.00;;;;;;;;;;4993584;28;20156;-71
2022/07/06 04:05:00;;;;;;;9.13;0.90;;;;;;;;;;4996975;28;20128;-69
2022/07/06 04:07:28;;;;;;;8.57;1.27;;;;;;;;;;5000871;28;20108;-70
2022/07/06 04:09:53;;;;;;;8.40;1.35;;;;;;;;;;4996485;28;20064;-69
2022/07/06 04:12:18;;;;;;;6.72;1.25;;;;;;;;;;4996432;28;20045;-70
2022/07/06 04:14:44;;;;;;;7.80;1.10;;;;;;;;;;4994604;28;20049;-66
2022/07/06 04:19:55;;;;;;;5.53;1.45;;;;;;;;;;4996623;28;20604;-71
2022/07/06 04:22:21;;;;;;;4.22;1.10;;;;;;;;;;4995907;28;20838;-69
2022/07/06 04:24:48;;;;;;;11.73;1.23;;;;;;;;;;4995860;28;20044;-70
2022/07/06 04:27:13;;;;;;;11.18;1.10;;;;;;;;;;4999212;28;20037;-70
2022/07/06 04:29:39;;;;;;;6.05;1.15;;;;;;;;;;4998332;28;20099;-68
2022/07/06 04:32:07;;;;;;;7.70;1.10;;;;;;;;;;5009349;28;20040;-69
2022/07/06 04:34:32;;;;;;;4.97;1.10;;;;;;;;;;4996372;28;20696;-70
2022/07/06 04:36:58;;;;;;;4.88;0.88;;;;;;;;;;4993906;28;20037;-69
2022/07/06 04:39:27;;;;;;;8.02;1.15;;;;;;;;;;4996207;28;20140;-71
2022/07/06 04:41:53;;;;;;;12.25;1.40;;;;;;;;;;5003115;28;20174;-70
2022/07/06 04:44:18;;;;;;;5.68;1.45;;;;;;;;;;5000973;28;20096;-71
2022/07/06 04:46:43;;;;;;;7.55;1.15;;;;;;;;;;5001122;28;20752;-69
2022/07/06 04:49:09;;;;;;;6.30;0.95;;;;;;;;;;5000458;28;20125;-70
2022/07/06 04:51:36;;;;;;;6.05;1.00;;;;;;;;;;4996935;28;20839;-69
2022/07/06 04:54:04;;;;;;;12.45;1.00;;;;;;;;;;4997037;28;20951;-68
2022/07/06 04:56:29;;;;;;;3.20;0.63;;;;;;;;;;4995911;28;20064;-71
2022/07/06 04:58:55;;;;;;;6.70;0.90;;;;;;;;;;4994310;28;20127;-69
2022/07/06 05:01:20;;;;;;;8.35;1.10;;;;;;;;;;5003165;28;20041;-69
2022/07/06 05:03:45;;;;;;;7.35;1.00;;;;;;;;;;4997136;28;20112;-70
2022/07/06 05:06:11;;;;;;;5.82;0.90;;;;;;;;;;4995370;28;20502;-69
2022/07/06 05:08:37;;;;;;;3.72;0.77;;;;;;;;;;4998120;28;20026;-70
2022/07/06 05:11:05;;;;;;;3.78;0.80;;;;;;;;;;5001259;28;20159;-70
2022/07/06 05:13:30;;;;;;;7.15;1.05;;;;;;;;;;4999932;28;20029;-70
2022/07/06 05:15:55;;;;;;;3.28;0.70;;;;;;;;;;5004315;28;20037;-70
2022/07/06 05:18:21;;;;;;;5.65;0.88;;;;;;;;;;5002078;28;20029;-71
2022/07/06 05:20:48;;;;;;;6.60;0.80;;;;;;;;;;4999380;28;20033;-70
2022/07/06 05:23:14;;;;;;;2.67;0.73;;;;;;;;;;5002004;28;20033;-70
2022/07/06 05:25:40;;;;;;;5.55;1.10;;;;;;;;;;4999203;28;20168;-70
2022/07/06 05:28:05;;;;;;;5.55;0.88;;;;;;;;;;5004361;28;22287;-70
2022/07/06 05:30:30;;;;;;;4.45;0.93;;;;;;;;;;4995670;28;20734;-70
2022/07/06 05:32:56;;;;;;;7.60;1.00;;;;;;;;;;5004322;28;20061;-71
2022/07/06 05:35:24;;;;;;;8.45;0.80;;;;;;;;;;5012630;28;20045;-67
2022/07/06 05:37:49;;;;;;;5.00;1.15;;;;;;;;;;5009261;28;20096;-67
2022/07/06 05:40:15;;;;;;;4.55;0.60;;;;;;;;;;4998429;28;20136;-71
2022/07/06 05:42:40;;;;;;;5.07;0.50;;;;;;;;;;4990236;28;20045;-71
2022/07/06 05:45:06;;;;;;;3.88;0.80;;;;;;;;;;4993169;28;20165;-71
2022/07/06 05:50:17;;;;;;;4.82;0.85;;;;;;;;;;4997331;28;20518;-70
2022/07/06 05:52:44;;;;;;;2.60;0.60;;;;;;;;;;5005627;28;20046;-69
2022/07/06 05:55:10;;;;;;;3.83;0.70;;;;;;;;;;4991783;28;20041;-70
2022/07/06 05:57:35;;;;;;;3.88;0.85;;;;;;;;;;4990474;28;20049;-69
2022/07/06 06:00:01;;;;;;;6.45;0.93;;;;;;;;;;4997807;28;20037;-71
2022/07/06 06:02:26;;;;;;;5.63;0.90;;;;;;;;;;4994032;28;20065;-70
2022/07/06 06:04:52;;;;;;;3.72;0.70;;;;;;;;;;4991593;28;20037;-69
2022/07/06 06:07:20;;;;;;;9.27;1.05;;;;;;;;;;4989544;28;20124;-65
2022/07/06 06:09:48;;;;;;;3.40;0.70;;;;;;;;;;4990585;28;20069;-67
2022/07/06 06:12:14;;;;;;;5.35;0.90;;;;;;;;;;4989389;28;20070;-65
2022/07/06 06:14:39;;;;;;;8.00;1.27;;;;;;;;;;4992035;28;20080;-66
2022/07/06 06:17:08;;;;;;;12.30;0.90;;;;;;;;;;4994153;28;20045;-65
2022/07/06 06:19:36;;;;;;;2.90;0.50;;;;;;;;;;4993021;28;20096;-66
2022/07/06 06:22:01;;;;;;;4.05;0.50;;;;;;;;;;5006339;28;20984;-65
2022/07/06 06:24:28;;;;;;;3.08;0.50;;;;;;;;;;4991604;28;20049;-66
2022/07/06 06:26:53;;;;;;;4.97;0.80;;;;;;;;;;4994307;28;20037;-65
2022/07/06 06:29:20;;;;;;;3.50;0.70;;;;;;;;;;4991676;28;20390;-66
2022/07/06 06:31:45;;;;;;;1.65;0.50;;;;;;;;;;4987887;28;20719;-66
2022/07/06 06:34:13;;;;;;;5.10;0.80;;;;;;;;;;4996335;28;20127;-73
2022/07/06 06:36:43;;;;;;;3.90;0.60;;;;;;;;;;5017111;28;20095;-73
2022/07/06 06:39:08;;;;;;;4.75;0.70;;;;;;;;;;4996070;28;20044;-73
2022/07/06 06:41:36;;;;;;;5.70;0.70;;;;;;;;;;5015563;28;20037;-72
2022/07/06 06:44:01;;;;;;;3.38;0.50;;;;;;;;;;5010051;28;20051;-75
2022/07/06 06:46:29;;;;;;;1.63;0.40;;;;;;;;;;5016438;28;20040;-76
2022/07/06 06:48:54;;;;;;;3.67;0.65;;;;;;;;;;5000400;28;20044;-72
2022/07/06 06:51:20;;;;;;;4.47;0.80;;;;;;;;;;4999679;28;20029;-74
2022/07/06 06:53:48;;;;;;;6.80;0.70;;;;;;;;;;4988854;28;20163;-74
2022/07/06 06:56:13;;;;;;;5.55;0.80;;;;;;;;;;4971251;28;20033;-74
2022/07/06 06:58:38;;;;;;;3.00;0.50;;;;;;;;;;4971337;28;20628;-74
2022/07/06 07:01:04;;;;;;;6.50;0.80;;;;;;;;;;4971848;28;20137;-72
2022/07/06 07:03:29;;;;;;;4.45;0.60;;;;;;;;;;4971102;28;20030;-74
2022/07/06 07:05:55;;;;;;;0.90;0.40;;;;;;;;;;4972761;28;20415;-75
2022/07/06 07:08:20;;;;;;;4.03;0.70;;;;;;;;;;4945579;28;20068;-74
2022/07/06 07:10:45;;;;;;;1.95;0.47;;;;;;;;;;4977460;28;20594;-75
2022/07/06 07:13:11;;;;;;;4.22;0.60;;;;;;;;;;4970151;28;20338;-76
2022/07/06 07:15:36;;;;;;;3.47;0.60;;;;;;;;;;4984966;28;21838;-74
2022/07/06 07:18:02;;;;;;;4.22;0.73;;;;;;;;;;4970881;28;20049;-72
2022/07/06 07:20:30;;;;;;;4.90;0.50;;;;;;;;;;4986332;28;20143;-74
2022/07/06 07:22:56;;;;;;;3.17;0.50;;;;;;;;;;4971095;28;21882;-74
2022/07/06 07:25:24;;;;;;;3.25;0.70;;;;;;;;;;4976290;28;20183;-75
2022/07/06 07:27:49;;;;;;;2.38;0.70;;;;;;;;;;4973331;28;20537;-75
2022/07/06 07:30:15;;;;;;;4.43;0.60;;;;;;;;;;4970637;28;20030;-72
2022/07/06 07:32:40;;;;;;;4.47;0.50;;;;;;;;;;4968375;28;20134;-75
2022/07/06 07:35:06;;;;;;;3.45;0.60;;;;;;;;;;4985337;28;20156;-74
2022/07/06 07:37:32;;;;;;;3.13;0.60;;;;;;;;;;4970700;28;21792;-75
2022/07/06 07:39:57;;;;;;;4.18;0.60;;;;;;;;;;4969881;28;20034;-77
2022/07/06 07:42:25;;;;;;;4.90;0.68;;;;;;;;;;4974829;28;20044;-70
2022/07/06 07:44:50;;;;;;;4.35;0.75;;;;;;;;;;4982513;28;22374;-71
2022/07/06 07:47:16;;;;;;;1.85;0.50;;;;;;;;;;4978013;28;20589;-71
2022/07/06 07:49:41;;;;;;;2.78;0.60;;;;;;;;;;4986378;28;20125;-72
2022/07/06 07:52:07;;;;;;;3.90;0.60;;;;;;;;;;4976747;28;20026;-69
2022/07/06 07:54:33;;;;;;;3.53;0.50;;;;;;;;;;4979806;28;20541;-72
2022/07/06 07:56:58;;;;;;;3.85;0.80;;;;;;;;;;4973424;28;20084;-70
2022/07/06 07:59:24;;;;;;;3.75;0.75;;;;;;;;;;4974082;28;20125;-71
2022/07/06 08:01:49;;;;;;;3.22;0.60;;;;;;;;;;4971039;28;20559;-69
2022/07/06 08:04:14;;;;;;;3.58;0.55;;;;;;;;;;4978865;28;20034;-72
2022/07/06 08:06:42;;;;;;;2.63;0.60;;;;;;;;;;4975876;28;20177;-70
2022/07/06 08:09:08;;;;;;;4.03;0.57;;;;;;;;;;4978787;28;20535;-70
2022/07/06 08:11:34;;;;;;;2.80;0.45;;;;;;;;;;4978028;28;20030;-74
2022/07/06 08:14:00;;;;;;;3.58;0.65;;;;;;;;;;4983710;28;20092;-75
2022/07/06 08:16:25;;;;;;;3.17;0.60;;;;;;;;;;4974561;28;20109;-73
2022/07/06 08:18:51;;;;;;;1.95;0.50;;;;;;;;;;4981319;28;20582;-76
2022/07/06 08:21:16;;;;;;;2.63;0.45;;;;;;;;;;4982877;28;20029;-73
2022/07/06 08:23:41;;;;;;;2.50;0.60;;;;;;;;;;4980884;28;20747;-76
2022/07/06 08:26:08;;;;;;;1.73;0.40;;;;;;;;;;4972649;28;20045;-76
2022/07/06 08:28:34;;;;;;;3.65;0.40;;;;;;;;;;4973378;28;20072;-70
2022/07/06 08:30:59;;;;;;;2.92;0.60;;;;;;;;;;4985544;28;20033;-72
2022/07/06 08:33:24;;;;;;;2.75;0.57;;;;;;;;;;4990446;28;20405;-73
2022/07/06 08:35:53;;;;;;;3.70;0.70;;;;;;;;;;4999074;28;20166;-73
2022/07/06 08:38:18;;;;;;;4.40;0.60;;;;;;;;;;4991378;28;20132;-73
2022/07/06 08:40:46;;;;;;;3.20;0.60;;;;;;;;;;4985077;28;20031;-72
2022/07/06 08:43:14;;;;;;;3.05;0.43;;;;;;;;;;4973291;28;20045;-73
2022/07/06 08:45:40;;;;;;;3.20;0.60;;;;;;;;;;4974072;28;20030;-75
2022/07/06 08:48:07;;;;;;;4.55;0.70;;;;;;;;;;4969388;28;20354;-74
2022/07/06 08:50:33;;;;;;;3.45;0.70;;;;;;;;;;4969657;28;20566;-74
2022/07/06 08:53:01;;;;;;;4.80;0.70;;;;;;;;;;4967024;28;20046;-74
2022/07/06 08:55:27;;;;;;;3.15;0.80;;;;;;;;;;4969819;28;20056;-73
2022/07/06 08:57:54;;;;;;;3.03;0.73;;;;;;;;;;4970006;28;20752;-73
2022/07/06 09:00:19;;;;;;;2.80;0.50;;;;;;;;;;4969757;28;20125;-73
2022/07/06 09:02:48;;;;;;;1.83;0.52;;;;;;;;;;4968550;28;20413;-74
2022/07/06 09:05:14;;;;;;;2.80;0.50;;;;;;;;;;4968434;28;20510;-74
2022/07/06 09:07:40;;;;;;;2.55;0.60;;;;;;;;;;4971028;28;20038;-74
2022/07/06 09:10:06;;;;;;;5.32;0.98;;;;;;;;;;4977805;28;20501;-74
2022/07/06 09:12:32;;;;;;;2.58;0.70;;;;;;;;;;4970340;28;20569;-74
2022/07/06 09:14:57;;;;;;;2.85;0.68;;;;;;;;;;4971689;28;20049;-74
2022/07/06 09:17:27;;;;;;;2.90;0.50;;;;;;;;;;4972470;28;20037;-73
2022/07/06 09:19:52;;;;;;;1.33;0.60;;;;;;;;;;4971043;28;20046;-72
2022/07/06 09:22:25;;;;;;;4.45;0.70;;;;;;;;;;4970876;28;20583;-74
2022/07/06 09:24:50;;;;;;;1.80;0.60;;;;;;;;;;4978186;28;20037;-73
2022/07/06 09:27:17;;;;;;;3.83;0.70;;;;;;;;;;4972198;28;20367;-73
2022/07/06 09:29:42;;;;;;;2.20;0.60;;;;;;;;;;4974548;28;20038;-73
2022/07/06 09:32:10;;;;;;;2.38;0.60;;;;;;;;;;4985857;28;20035;-75
2022/07/06 09:34:42;;;;;;;3.47;0.85;;;;;;;;;;4992744;28;20045;-73
2022/07/06 09:37:07;;;;;;;2.90;0.60;;;;;;;;;;4976021;28;20549;-76
2022/07/06 09:39:32;;;;;;;5.28;0.73;;;;;;;;;;4973842;28;20321;-74
2022/07/06 09:41:59;;;;;;;2.78;0.75;;;;;;;;;;4956056;28;20128;-76
2022/07/06 09:44:28;;;;;;;5.35;0.80;;;;;;;;;;4989225;28;20456;-75
2022/07/06 09:46:58;;;;;;;2.63;0.55;;;;;;;;;;4998770;28;20507;-74
2022/07/06 09:49:24;;;;;;;2.65;0.60;;;;;;;;;;4994829;28;20143;-75
2022/07/06 09:51:50;;;;;;;2.40;0.70;;;;;;;;;;4993594;28;20557;-76
2022/07/06 09:54:17;;;;;;;3.08;0.57;;;;;;;;;;4997600;28;20046;-76
2022/07/06 09:56:46;;;;;;;4.03;0.68;;;;;;;;;;4994311;28;20072;-71
2022/07/06 09:59:12;;;;;;;3.90;0.60;;;;;;;;;;4994254;28;20037;-74
2022/07/06 10:01:38;;;;;;;2.97;0.50;;;;;;;;;;5003264;28;20816;-74
2022/07/06 10:04:07;;;;;;;4.57;0.68;;;;;;;;;;5007020;28;20082;-75
2022/07/06 10:06:32;;;;;;;1.48;0.50;;;;;;;;;;5004162;28;20174;-73
2022/07/06 10:08:58;;;;;;;2.80;0.50;;;;;;;;;;5002371;28;20121;-72
2022/07/06 10:11:24;;;;;;;4.57;0.60;;;;;;;;;;4997582;28;20139;-72
2022/07/06 10:13:50;;;;;;;3.00;0.60;;;;;;;;;;4996953;28;20084;-66
2022/07/06 10:16:15;;;;;;;1.42;0.50;;;;;;;;;;4993874;28;20151;-74
2022/07/06 10:18:41;;;;;;;3.60;0.55;;;;;;;;;;4990575;28;21617;-71
2022/07/06 10:21:06;;;;;;;2.72;0.50;;;;;;;;;;4988709;28;20037;-70
2022/07/06 10:23:33;;;;;;;2.35;0.32;;;;;;;;;;4989264;28;20037;-71
2022/07/06 10:26:01;;;;;;;2.35;0.50;;;;;;;;;;4989048;28;20501;-72
2022/07/06 10:28:26;;;;;;;3.55;0.70;;;;;;;;;;4992911;28;20133;-72
2022/07/06 10:30:52;;;;;;;1.65;0.50;;;;;;;;;;4993705;28;20761;-71
2022/07/06 10:33:18;;;;;;;3.40;0.60;;;;;;;;;;4995320;28;20033;-71
2022/07/06 10:35:44;;;;;;;2.40;0.65;;;;;;;;;;4984446;28;20157;-70
2022/07/06 10:38:10;;;;;;;2.80;0.50;;;;;;;;;;5007474;28;20052;-71
2022/07/06 10:43:20;;;;;;;6.25;0.70;;;;;;;;;;5002353;28;20100;-72
2022/07/06 10:45:45;;;;;;;2.35;0.50;;;;;;;;;;4992546;28;20034;-71
2022/07/06 10:48:10;;;;;;;2.35;0.50;;;;;;;;;;4992927;28;20151;-70
2022/07/06 10:50:37;;;;;;;2.97;0.80;;;;;;;;;;4993020;28;20756;-70
2022/07/06 10:53:02;;;;;;;2.05;0.50;;;;;;;;;;4997016;28;20045;-70
2022/07/06 10:55:32;;;;;;;3.03;0.70;;;;;;;;;;4992567;28;21139;-71
2022/07/06 10:57:57;;;;;;;3.50;0.63;;;;;;;;;;4973496;28;20034;-72
2022/07/06 11:00:22;;;;;;;7.00;0.80;;;;;;;;;;4970639;28;21108;-71
2022/07/06 11:02:47;;;;;;;9.15;0.75;;;;;;;;;;4971288;28;20044;-70
2022/07/06 11:05:35;;;;;;;2.40;0.60;;;;;;;;;;4977739;28;20125;-70
2022/07/06 11:08:00;;;;;;;4.53;0.60;;;;;;;;;;4973179;28;20139;-70
2022/07/06 11:10:45;;;;;;;1.35;0.55;;;;;;;;;;4971077;28;20137;-69
2022/07/06 11:13:24;;;;;;;1.75;0.40;;;;;;;;;;4973114;28;21663;-69
2022/07/06 11:15:49;;;;;;;5.25;0.90;;;;;;;;;;4971943;28;20159;-68
2022/07/06 11:18:18;;;;;;;5.82;1.10;;;;;;;;;;4971362;28;20069;-69
2022/07/06 11:21:05;;;;;;;6.90;0.80;;;;;;;;;;4970198;28;20123;-69
2022/07/06 11:23:30;;;;;;;6.28;0.90;;;;;;;;;;4973306;28;20858;-70
2022/07/06 11:25:58;;;;;;;5.97;1.02;;;;;;;;;;4972417;28;20144;-69
2022/07/06 11:28:23;;;;;;;3.83;0.80;;;;;;;;;;4973035;28;20045;-69
2022/07/06 11:30:49;;;;;;;6.57;0.85;;;;;;;;;;4970451;28;20061;-70
2022/07/06 11:33:27;;;;;;;10.13;1.25;;;;;;;;;;4969232;28;20140;-70
2022/07/06 11:35:52;;;;;;;6.78;0.95;;;;;;;;;;4963503;28;20041;-68
2022/07/06 11:38:27;;;;;;;5.57;0.70;;;;;;;;;;4978757;28;20738;-70
2022/07/06 11:40:55;;;;;;;6.38;1.13;;;;;;;;;;4972891;28;20033;-69
2022/07/06 11:43:20;;;;;;;9.43;0.82;;;;;;;;;;4970639;28;20037;-69
2022/07/06 11:45:46;;;;;;;5.72;0.80;;;;;;;;;;4972281;28;20099;-71
2022/07/06 11:48:14;;;;;;;5.13;0.80;;;;;;;;;;4971087;28;20673;-69
2022/07/06 11:50:39;;;;;;;3.67;1.05;;;;;;;;;;4970850;28;20042;-70
2022/07/06 11:53:05;;;;;;;10.10;0.98;;;;;;;;;;4971840;28;20100;-69
2022/07/06 11:55:32;;;;;;;8.30;0.90;;;;;;;;;;4985898;28;20056;-70
2022/07/06 11:57:59;;;;;;;6.85;1.33;;;;;;;;;;4992728;28;20144;-71
2022/07/06 12:00:24;;;;;;;10.95;1.42;;;;;;;;;;4995750;28;20044;-71
2022/07/06 12:03:02;;;;;;;6.47;0.90;;;;;;;;;;4992705;28;20033;-70
2022/07/06 12:05:31;;;;;;;4.95;0.80;;;;;;;;;;4971745;28;20119;-72
2022/07/06 12:08:05;;;;;;;10.88;1.00;;;;;;;;;;4975055;28;20123;-71
2022/07/06 12:10:34;;;;;;;4.88;1.27;;;;;;;;;;4972147;28;20658;-72
2022/07/06 12:13:06;;;;;;;10.02;1.40;;;;;;;;;;4971112;28;20038;-70
2022/07/06 12:15:31;;;;;;;11.95;1.30;;;;;;;;;;4971586;28;20585;-72
2022/07/06 12:17:59;;;;;;;5.55;1.05;;;;;;;;;;4985997;28;20062;-69
2022/07/06 12:20:25;;;;;;;10.30;1.20;;;;;;;;;;4972890;28;20128;-71
2022/07/06 12:23:00;;;;;;;5.45;1.23;;;;;;;;;;4983388;28;20037;-72
2022/07/06 12:25:32;;;;;;;12.25;1.70;;;;;;;;;;4992791;28;20135;-71
2022/07/06 12:27:58;;;;;;;12.45;1.33;;;;;;;;;;4972402;28;20556;-70
2022/07/06 12:30:23;;;;;;;10.32;1.33;;;;;;;;;;4986863;28;20042;-71
2022/07/06 12:33:07;;;;;;;13.57;1.70;;;;;;;;;;4974557;28;20838;-72
2022/07/06 12:35:32;;;;;;;3.88;0.95;;;;;;;;;;4972923;28;20158;-69
2022/07/06 12:37:57;;;;;;;8.38;1.10;;;;;;;;;;4975292;28;20042;-73
2022/07/06 12:40:25;;;;;;;14.30;1.73;;;;;;;;;;4977923;28;20137;-71
2022/07/06 12:42:50;;;;;;;10.60;1.15;;;;;;;;;;4971494;28;22893;-71
2022/07/06 12:45:16;;;;;;;13.05;2.22;;;;;;;;;;4987010;28;20042;-69
2022/07/06 12:47:42;;;;;;;16.00;2.13;;;;;;;;;;4989597;28;21100;-70
2022/07/06 12:50:09;;;;;;;12.38;1.90;;;;;;;;;;4994248;28;20816;-71
2022/07/06 12:52:36;;;;;;;5.70;1.38;;;;;;;;;;4995526;28;20049;-69
2022/07/06 12:55:01;;;;;;;7.88;1.70;;;;;;;;;;4996035;28;20045;-70
2022/07/06 12:57:29;;;;;;;9.55;1.65;;;;;;;;;;4994889;28;20033;-70
2022/07/06 12:59:56;;;;;;;11.93;1.73;;;;;;;;;;4995447;28;20102;-71
2022/07/06 13:02:26;;;;;;;14.18;1.73;;;;;;;;;;4996865;28;20475;-70
2022/07/06 13:04:57;;;;;;;9.52;1.52;;;;;;;;;;4993589;28;20033;-69
2022/07/06 13:07:23;;;;;;;;;;;;;;;;;;4994453;28;20034;-70
2022/07/06 13:09:48;;;;;;;12.10;1.90;;;;;;;;;;4996401;28;19992;-71
2022/07/06 13:12:13;;;;;;;10.32;1.80;;;;;;;;;;4994944;28;20080;-72
2022/07/06 13:14:38;;;;;;;15.52;2.25;;;;;;;;;;4994781;28;20134;-71
2022/07/06 13:17:04;;;;;;;12.73;2.00;;;;;;;;;;5006559;28;20026;-69
2022/07/06 13:19:29;;;;;;;14.13;2.22;;;;;;;;;;4993352;28;21958;-67
2022/07/06 13:21:55;;;;;;;18.42;2.50;;;;;;;;;;4989154;28;20124;-67
2022/07/06 13:24:20;;;;;;;17.55;2.60;;;;;;;;;;4989241;28;20555;-69
2022/07/06 13:26:46;;;;;;;16.83;2.83;;;;;;;;;;4989187;28;20528;-66
2022/07/06 13:29:12;;;;;;;14.82;2.30;;;;;;;;;;4987613;28;20113;-68
2022/07/06 13:31:38;;;;;;;13.45;2.80;;;;;;;;;;4989190;28;20036;-68
2022/07/06 13:34:04;;;;;;;13.68;2.55;;;;;;;;;;4991932;28;20507;-71
2022/07/06 13:36:29;;;;;;;20.42;3.20;;;;;;;;;;4991457;28;20042;-72
2022/07/06 13:38:54;;;;;;;17.23;3.00;;;;;;;;;;4988352;28;20037;-69
2022/07/06 13:41:20;;;;;;;15.85;2.85;;;;;;;;;;4988157;28;20386;-67
2022/07/06 13:43:48;;;;;;;13.38;2.83;;;;;;;;;;4988158;28;20278;-68
2022/07/06 13:46:14;;;;;;;15.77;3.38;;;;;;;;;;4987534;28;20042;-68
2022/07/06 13:48:40;;;;;;;13.98;3.65;;;;;;;;;;4988903;28;20451;-68
2022/07/06 13:51:05;;;;;;;24.15;5.13;;;;;;;;;;4988612;28;20139;-70
2022/07/06 13:53:32;;;;;;;17.52;8.35;;;;;;;;;;4989411;28;20064;-70
2022/07/06 13:55:59;;;;;;;29.30;11.38;;;;;;;;;;4988790;28;20700;-68
2022/07/06 13:58:25;;;;;;;27.92;10.80;;;;;;;;;;4987887;28;20458;-69
2022/07/06 14:00:50;;;;;;;19.17;9.00;;;;;;;;;;4997278;28;20138;-70
2022/07/06 14:03:15;;;;;;;18.20;7.15;;;;;;;;;;4987313;28;20037;-70
2022/07/06 14:09:29;;;;;;;19.27;3.15;;;;;;;;;;4970198;22;20502;-72
2022/07/06 14:11:55;;;;;;;18.05;3.45;;;;;;;;;;4928131;28;20204;-70
2022/07/06 14:14:20;;;;;;;14.02;2.70;;;;;;;;;;4931027;28;20063;-71
2022/07/06 14:16:45;;;;;;;16.38;2.85;;;;;;;;;;4932364;28;20038;-68
2022/07/06 14:19:11;;;;;;;13.60;2.47;;;;;;;;;;4931840;28;20082;-69
2022/07/06 14:21:38;;;;;;;16.08;2.95;;;;;;;;;;4931390;28;20035;-71
2022/07/06 14:24:04;;;;;;;13.70;3.10;;;;;;;;;;4930414;28;20037;-69
2022/07/06 14:26:29;;;;;;;18.55;2.55;;;;;;;;;;4929670;28;20066;-69
2022/07/06 14:28:55;;;;;;;12.73;2.30;;;;;;;;;;4932583;28;20308;-68
2022/07/06 14:31:21;;;;;;;11.57;2.20;;;;;;;;;;4930953;28;20026;-69
2022/07/06 14:33:49;;;;;;;14.90;2.13;;;;;;;;;;4932312;28;20043;-71
2022/07/06 14:36:14;;;;;;;9.85;2.53;;;;;;;;;;4931229;28;20050;-68
2022/07/06 14:38:39;;;;;;;16.27;2.58;;;;;;;;;;4932110;28;20023;-71
2022/07/06 14:41:05;;;;;;;14.45;2.00;;;;;;;;;;4929601;28;20041;-70
2022/07/06 14:43:30;;;;;;;10.00;2.08;;;;;;;;;;4932281;28;20027;-73
2022/07/06 14:45:55;;;;;;;15.73;2.13;;;;;;;;;;4931078;28;20030;-70
2022/07/06 14:48:21;;;;;;;18.35;2.58;;;;;;;;;;4947052;28;20058;-69